Time;durP1;ratioP1;P1;durP2;ratioP2;P2;SDS_P1;SDS_P2;PMS_P1;PMS_P2;Temp;Humidity;BMP_temperature;BMP_pressure;BME280_temperature;BME280_humidity;BME280_pressure;Samples;Min_cycle;Max_cycle;Signal;HPM_P1;HPM_P2
2022/01/16 00:01:34;;;;;;;30.15;15.20;;;6.10;65.40;;;;;;5020352;28;20052;-58
2022/01/16 00:04:06;;;;;;;29.85;14.30;;;6.10;65.40;;;;;;5003026;28;20513;-59
2022/01/16 00:06:33;;;;;;;33.15;14.93;;;6.10;65.30;;;;;;5019369;28;20060;-57
2022/01/16 00:09:00;;;;;;;38.83;15.73;;;6.20;65.30;;;;;;5017941;28;20037;-56
2022/01/16 00:11:27;;;;;;;25.10;14.38;;;6.10;65.30;;;;;;5019954;28;20529;-59
2022/01/16 00:13:53;;;;;;;27.27;15.57;;;6.10;65.30;;;;;;5020691;28;20600;-59
2022/01/16 00:16:19;;;;;;;38.25;16.38;;;6.20;65.40;;;;;;5017885;28;20029;-59
2022/01/16 00:18:49;;;;;;;43.45;15.52;;;6.10;65.30;;;;;;5019839;28;20054;-59
2022/01/16 00:21:20;;;;;;;24.60;13.85;;;6.10;65.20;;;;;;5020250;28;20508;-59
2022/01/16 00:23:46;;;;;;;26.52;14.40;;;6.20;65.40;;;;;;5018465;28;20029;-57
2022/01/16 00:26:13;;;;;;;25.05;13.93;;;6.10;65.30;;;;;;5003076;28;20043;-57
2022/01/16 00:28:39;;;;;;;26.73;14.23;;;6.10;65.30;;;;;;5019190;28;20492;-57
2022/01/16 00:31:05;;;;;;;23.08;13.68;;;6.10;65.30;;;;;;5020342;28;20029;-59
2022/01/16 00:33:32;;;;;;;22.15;13.43;;;6.10;65.30;;;;;;5019879;28;20096;-59
2022/01/16 00:35:58;;;;;;;21.15;13.02;;;6.10;65.40;;;;;;5019545;28;20389;-59
2022/01/16 00:38:24;;;;;;;24.30;14.02;;;6.10;65.40;;;;;;5000801;28;20367;-56
2022/01/16 00:40:50;;;;;;;23.15;13.65;;;6.10;65.30;;;;;;5020105;28;20029;-59
2022/01/16 00:43:17;;;;;;;21.23;12.52;;;6.10;65.20;;;;;;5020875;28;20040;-58
2022/01/16 00:45:43;;;;;;;27.80;14.40;;;6.10;65.30;;;;;;5010352;28;20401;-58
2022/01/16 00:48:10;;;;;;;29.20;14.15;;;6.10;65.20;;;;;;5017177;28;20516;-59
2022/01/16 00:50:36;;;;;;;33.40;15.02;;;6.10;65.30;;;;;;5016511;28;20049;-58
2022/01/16 00:53:03;;;;;;;29.27;14.43;;;6.10;65.30;;;;;;5019431;28;20041;-57
2022/01/16 00:55:30;;;;;;;24.58;14.48;;;6.10;65.20;;;;;;5019824;28;20048;-59
2022/01/16 00:57:56;;;;;;;26.15;14.35;;;6.10;65.30;;;;;;5017835;28;20042;-57
2022/01/16 01:00:22;;;;;;;25.48;14.38;;;6.10;65.30;;;;;;5017712;28;20037;-57
2022/01/16 01:02:48;;;;;;;37.67;14.20;;;6.20;65.30;;;;;;5017824;28;20482;-58
2022/01/16 01:05:14;;;;;;;30.73;14.68;;;6.10;65.20;;;;;;5017656;28;20512;-57
2022/01/16 01:07:40;;;;;;;25.88;15.18;;;6.10;65.30;;;;;;5018290;28;20017;-59
2022/01/16 01:10:08;;;;;;;29.30;14.85;;;6.20;65.40;;;;;;5023251;28;20040;-59
2022/01/16 01:12:55;;;;;;;29.38;15.88;;;6.10;65.30;;;;;;5025095;28;20036;-59
2022/01/16 01:15:26;;;;;;;25.17;14.48;;;6.20;65.30;;;;;;5021400;28;20037;-58
2022/01/16 01:17:53;;;;;;;27.92;14.23;;;6.10;65.30;;;;;;5020460;28;20511;-59
2022/01/16 01:20:21;;;;;;;27.35;15.15;;;6.10;65.30;;;;;;5020006;28;20445;-57
2022/01/16 01:22:50;;;;;;;27.02;14.73;;;6.10;65.30;;;;;;5024596;28;20041;-59
2022/01/16 01:25:17;;;;;;;27.15;14.90;;;6.10;65.30;;;;;;5024239;28;20025;-57
2022/01/16 01:27:45;;;;;;;23.45;13.90;;;6.10;65.30;;;;;;5022180;28;20500;-57
2022/01/16 01:30:13;;;;;;;27.15;14.65;;;6.10;65.50;;;;;;5021533;28;20496;-59
2022/01/16 01:32:40;;;;;;;27.58;14.38;;;6.10;65.60;;;;;;5022831;28;20481;-59
2022/01/16 01:35:09;;;;;;;33.28;14.50;;;6.10;65.50;;;;;;5023118;28;20026;-59
2022/01/16 01:37:36;;;;;;;32.25;14.98;;;6.10;65.60;;;;;;5022143;28;20024;-59
2022/01/16 01:40:08;;;;;;;28.55;15.52;;;6.10;65.50;;;;;;5022960;28;20389;-57
2022/01/16 01:42:42;;;;;;;28.33;16.05;;;6.10;65.50;;;;;;5024325;28;20036;-59
2022/01/16 01:53:24;;;;;;;22.08;12.15;;;6.20;65.60;;;;;;5030008;28;19924;-57
2022/01/16 01:55:50;;;;;;;18.45;11.63;;;6.10;65.20;;;;;;5023755;28;20324;-57
2022/01/16 01:58:18;;;;;;;16.73;10.73;;;6.10;65.20;;;;;;5020983;28;20461;-59
2022/01/16 02:00:45;;;;;;;16.50;10.60;;;6.10;65.20;;;;;;5020765;28;21179;-59
2022/01/16 02:03:21;;;;;;;13.27;9.10;;;6.10;65.30;;;;;;5022414;28;20025;-59
2022/01/16 02:05:48;;;;;;;13.70;9.13;;;6.10;65.20;;;;;;5022244;28;20037;-59
2022/01/16 02:08:15;;;;;;;13.07;9.00;;;6.10;65.00;;;;;;5018724;28;20025;-59
2022/01/16 02:10:42;;;;;;;14.07;9.05;;;6.10;65.70;;;;;;5020346;28;20021;-59
2022/01/16 02:13:18;;;;;;;13.75;9.52;;;6.10;64.90;;;;;;5023189;28;20048;-59
2022/01/16 02:32:28;;;;;;;12.80;8.73;;;6.00;64.70;;;;;;5021426;28;20032;-57
2022/01/16 02:34:48;;;;;;;14.63;9.30;;;6.00;64.70;;;;;;5019285;28;20037;-58
2022/01/16 02:37:16;;;;;;;12.65;8.73;;;6.10;64.80;;;;;;5020146;28;20048;-57
2022/01/16 02:39:50;;;;;;;11.32;7.68;;;6.10;64.70;;;;;;5015399;28;20359;-59
2022/01/16 02:42:18;;;;;;;12.50;8.32;;;6.00;64.60;;;;;;5021277;28;20370;-57
2022/01/16 02:44:49;;;;;;;13.30;8.27;;;6.00;64.50;;;;;;5022910;28;20609;-55
2022/01/16 02:47:18;;;;;;;14.10;8.93;;;6.00;64.50;;;;;;5018688;28;20160;-59
2022/01/16 02:49:50;;;;;;;13.35;8.60;;;6.10;64.50;;;;;;5018727;28;20021;-59
2022/01/16 02:52:19;;;;;;;13.90;8.10;;;6.10;64.50;;;;;;5020439;28;20505;-59
2022/01/16 02:54:47;;;;;;;12.48;8.18;;;6.00;64.50;;;;;;5022990;28;20025;-58
2022/01/16 02:57:17;;;;;;;12.48;7.95;;;6.10;64.60;;;;;;5018994;28;20096;-59
2022/01/16 02:59:49;;;;;;;14.60;8.23;;;6.10;64.60;;;;;;5021561;28;20025;-59
2022/01/16 03:02:16;;;;;;;13.38;8.18;;;6.00;64.50;;;;;;5020648;28;20410;-57
2022/01/16 03:04:42;;;;;;;14.18;8.63;;;6.10;64.60;;;;;;5021759;28;20030;-59
2022/01/16 03:07:09;;;;;;;14.38;8.65;;;6.10;64.60;;;;;;5001532;28;20034;-59
2022/01/16 03:10:00;;;;;;;12.18;8.25;;;6.10;64.60;;;;;;5021784;28;20044;-59
2022/01/16 03:12:26;;;;;;;15.45;8.88;;;6.10;64.60;;;;;;5021551;28;20030;-56
2022/01/16 03:14:52;;;;;;;13.13;8.43;;;6.10;64.50;;;;;;5021282;28;20534;-59
2022/01/16 03:17:28;;;;;;;11.73;7.63;;;6.10;64.50;;;;;;5000925;28;20037;-59
2022/01/16 03:22:39;;;;;;;13.95;9.13;;;6.10;64.40;;;;;;5021956;28;20389;-58
2022/01/16 03:25:06;;;;;;;14.40;8.90;;;6.10;64.30;;;;;;5004569;28;20509;-57
2022/01/16 03:27:32;;;;;;;12.77;8.38;;;6.10;64.30;;;;;;5018031;28;20549;-57
2022/01/16 03:30:00;;;;;;;14.30;8.35;;;6.20;64.40;;;;;;5020394;28;20037;-59
2022/01/16 03:35:49;;;;;;;15.43;7.97;;;6.20;64.20;;;;;;5028304;28;20044;-58
2022/01/16 03:38:15;;;;;;;12.70;8.07;;;6.20;64.20;;;;;;5017883;28;20453;-59
2022/01/16 03:40:42;;;;;;;13.63;8.57;;;6.20;64.20;;;;;;5019656;28;20449;-58
2022/01/16 03:43:13;;;;;;;14.18;8.23;;;6.20;64.20;;;;;;5021172;28;20037;-57
2022/01/16 03:45:44;;;;;;;13.20;7.65;;;6.10;64.20;;;;;;5019665;28;20060;-54
2022/01/16 03:48:11;;;;;;;13.63;7.53;;;6.20;64.20;;;;;;5015330;28;20401;-58
2022/01/16 03:50:38;;;;;;;12.00;7.55;;;6.20;64.20;;;;;;5019945;28;20441;-57
2022/01/16 03:53:05;;;;;;;12.55;7.38;;;6.20;64.20;;;;;;5019792;28;20045;-57
2022/01/16 03:55:32;;;;;;;13.25;7.55;;;6.20;64.20;;;;;;5003004;28;21158;-58
2022/01/16 03:57:59;;;;;;;12.95;6.93;;;6.20;64.10;;;;;;5014862;28;20040;-58
2022/01/16 04:00:25;;;;;;;11.75;8.23;;;6.20;64.10;;;;;;5019039;28;20040;-57
2022/01/16 04:02:52;;;;;;;11.57;7.55;;;6.20;64.00;;;;;;5017492;28;20025;-58
2022/01/16 04:05:19;;;;;;;11.95;7.97;;;6.20;64.00;;;;;;5020617;28;20033;-57
2022/01/16 04:07:45;;;;;;;10.98;7.32;;;6.20;63.90;;;;;;5018874;28;20042;-57
2022/01/16 04:10:11;;;;;;;12.23;8.35;;;6.20;63.80;;;;;;5017945;28;20435;-58
2022/01/16 04:12:39;;;;;;;11.13;7.20;;;6.30;63.80;;;;;;5019119;28;20037;-59
2022/01/16 04:17:40;;;;;;;12.32;7.03;;;6.20;63.50;;;;;;5019149;28;20028;-57
2022/01/16 04:20:07;;;;;;;11.23;7.00;;;6.20;63.50;;;;;;5019004;28;20352;-57
2022/01/16 04:22:33;;;;;;;14.32;7.28;;;6.20;63.40;;;;;;5020634;28;20506;-58
2022/01/16 04:24:59;;;;;;;10.82;7.07;;;6.20;63.30;;;;;;5020757;28;20469;-54
2022/01/16 04:27:25;;;;;;;10.25;6.55;;;6.20;63.20;;;;;;5016436;28;20017;-57
2022/01/16 04:29:51;;;;;;;11.70;7.75;;;6.20;63.10;;;;;;5020224;28;20611;-59
2022/01/16 04:32:18;;;;;;;10.38;6.72;;;6.20;63.00;;;;;;5018887;28;20521;-56
2022/01/16 04:34:44;;;;;;;13.20;8.25;;;6.20;63.00;;;;;;5003695;28;20390;-59
2022/01/16 04:37:10;;;;;;;13.07;8.20;;;6.20;62.90;;;;;;5018784;28;20029;-55
2022/01/16 04:39:37;;;;;;;13.30;8.02;;;6.20;62.90;;;;;;5017218;28;20040;-57
2022/01/16 04:44:52;;;;;;;12.07;7.10;;;6.20;62.80;;;;;;5019883;28;20036;-57
2022/01/16 04:47:18;;;;;;;11.82;7.70;;;6.20;62.80;;;;;;5015176;28;20458;-56
2022/01/16 04:49:44;;;;;;;14.93;8.50;;;6.20;62.70;;;;;;5019032;28;20385;-59
2022/01/16 04:52:11;;;;;;;14.27;8.70;;;6.10;62.60;;;;;;5016841;28;20131;-57
2022/01/16 04:54:37;;;;;;;13.13;8.10;;;6.10;62.60;;;;;;5019134;28;20053;-57
2022/01/16 04:57:03;;;;;;;14.15;8.40;;;6.10;62.60;;;;;;5019422;28;20044;-58
2022/01/16 04:59:29;;;;;;;14.20;8.55;;;6.10;62.60;;;;;;5021822;28;20029;-57
2022/01/16 05:01:56;;;;;;;14.57;8.50;;;6.10;62.60;;;;;;5020489;28;20044;-59
2022/01/16 05:04:22;;;;;;;15.85;9.15;;;6.10;62.60;;;;;;5022225;28;20037;-57
2022/01/16 05:06:48;;;;;;;15.90;8.55;;;6.10;62.60;;;;;;5024636;28;20396;-57
2022/01/16 05:09:14;;;;;;;17.33;9.55;;;6.10;62.60;;;;;;5018809;28;20025;-59
2022/01/16 05:11:40;;;;;;;20.17;10.63;;;6.10;62.60;;;;;;5020859;28;20024;-56
2022/01/16 05:16:56;;;;;;;25.42;10.63;;;6.10;62.60;;;;;;4988973;28;20367;-58
2022/01/16 05:19:22;;;;;;;18.33;10.65;;;6.10;62.60;;;;;;5018626;28;20059;-56
2022/01/16 05:21:49;;;;;;;23.05;11.80;;;6.10;62.60;;;;;;5019634;28;21052;-57
2022/01/16 05:24:15;;;;;;;22.80;12.32;;;6.20;62.70;;;;;;5022732;28;20029;-57
2022/01/16 05:26:43;;;;;;;21.77;12.73;;;6.10;62.50;;;;;;5019294;28;20037;-59
2022/01/16 05:29:11;;;;;;;24.13;12.85;;;6.20;62.50;;;;;;4999912;28;20030;-57
2022/01/16 05:31:44;;;;;;;24.13;12.57;;;6.10;62.50;;;;;;5016795;28;20037;-58
2022/01/16 05:34:15;;;;;;;29.85;14.57;;;6.10;62.50;;;;;;5022588;28;20497;-58
2022/01/16 05:36:42;;;;;;;25.25;13.70;;;6.20;62.60;;;;;;5015626;28;20048;-58
2022/01/16 05:39:08;;;;;;;29.73;14.82;;;6.20;62.60;;;;;;5000021;28;20055;-57
2022/01/16 05:41:34;;;;;;;34.50;16.90;;;6.10;62.50;;;;;;5022872;28;20358;-59
2022/01/16 05:44:00;;;;;;;38.05;17.98;;;6.20;62.50;;;;;;5015930;28;20037;-59
2022/01/16 05:46:27;;;;;;;43.17;20.65;;;6.20;62.50;;;;;;5014587;28;20887;-57
2022/01/16 05:48:53;;;;;;;49.35;22.13;;;6.10;62.40;;;;;;5018477;28;20503;-57
2022/01/16 05:51:19;;;;;;;45.10;21.50;;;6.10;62.30;;;;;;5020713;28;20048;-59
2022/01/16 05:53:45;;;;;;;49.65;23.50;;;6.20;62.30;;;;;;5016328;28;20037;-58
2022/01/16 05:56:12;;;;;;;50.42;23.27;;;6.10;62.30;;;;;;5020872;28;20028;-57
2022/01/16 05:58:40;;;;;;;53.22;25.13;;;6.10;62.40;;;;;;5023068;28;20431;-57
2022/01/16 06:01:06;;;;;;;50.17;23.55;;;6.10;62.40;;;;;;5022257;28;20042;-58
2022/01/16 06:03:32;;;;;;;48.33;23.17;;;6.10;62.40;;;;;;5022463;28;20034;-57
2022/01/16 06:05:59;;;;;;;52.95;24.60;;;6.20;62.40;;;;;;5022274;28;20485;-57
2022/01/16 06:08:25;;;;;;;50.17;24.48;;;6.20;62.40;;;;;;5022447;28;20033;-59
2022/01/16 06:10:51;;;;;;;50.08;24.02;;;6.20;62.40;;;;;;5020068;28;20048;-58
2022/01/16 06:13:17;;;;;;;47.35;22.60;;;6.20;62.20;;;;;;5021933;28;20482;-59
2022/01/16 06:15:46;;;;;;;48.25;23.25;;;6.20;62.20;;;;;;5019558;28;20034;-57
2022/01/16 06:18:13;;;;;;;47.72;23.52;;;6.20;62.30;;;;;;5020224;28;20501;-57
2022/01/16 06:20:41;;;;;;;52.20;23.02;;;6.20;62.20;;;;;;5022621;28;20502;-58
2022/01/16 06:23:08;;;;;;;44.30;22.45;;;6.20;62.20;;;;;;5022263;28;20028;-56
2022/01/16 06:25:34;;;;;;;44.13;22.33;;;6.20;62.20;;;;;;5021832;28;20092;-57
2022/01/16 06:28:00;;;;;;;50.70;22.63;;;6.20;62.10;;;;;;5004148;28;20041;-58
2022/01/16 06:30:26;;;;;;;44.00;22.35;;;6.20;62.10;;;;;;5017525;28;20034;-54
2022/01/16 06:32:52;;;;;;;48.88;23.48;;;6.20;62.10;;;;;;5019178;28;20399;-57
2022/01/16 06:35:19;;;;;;;42.40;21.17;;;6.20;62.10;;;;;;5000015;28;20030;-57
2022/01/16 06:37:45;;;;;;;73.63;33.90;;;6.20;62.10;;;;;;5022218;28;20037;-56
2022/01/16 06:40:12;;;;;;;170.85;72.65;;;6.20;62.00;;;;;;5022254;28;20057;-58
2022/01/16 06:42:39;;;;;;;101.05;47.35;;;6.20;62.00;;;;;;5020541;28;20506;-56
2022/01/16 06:45:08;;;;;;;61.58;31.05;;;6.20;62.00;;;;;;5021725;28;20049;-57
2022/01/16 06:47:34;;;;;;;59.83;28.33;;;6.20;62.10;;;;;;5018980;28;20042;-58
2022/01/16 06:50:00;;;;;;;64.95;33.17;;;6.20;62.10;;;;;;5019699;28;20080;-57
2022/01/16 06:52:27;;;;;;;48.17;24.15;;;6.20;62.00;;;;;;5019368;28;20042;-58
2022/01/16 06:54:53;;;;;;;46.30;21.95;;;6.20;62.00;;;;;;5015612;28;20044;-55
2022/01/16 06:57:19;;;;;;;44.58;23.80;;;6.20;62.00;;;;;;5018609;28;20045;-56
2022/01/16 06:59:47;;;;;;;45.78;23.00;;;6.20;61.90;;;;;;5019703;28;20542;-55
2022/01/16 07:02:16;;;;;;;42.92;21.30;;;6.20;61.90;;;;;;5013974;28;20053;-56
2022/01/16 07:04:45;;;;;;;43.03;21.83;;;6.20;61.80;;;;;;5019500;28;20569;-55
2022/01/16 07:07:11;;;;;;;43.50;20.98;;;6.20;61.70;;;;;;5000244;28;20046;-57
2022/01/16 07:09:39;;;;;;;42.95;22.20;;;6.20;61.70;;;;;;5018699;28;20033;-58
2022/01/16 07:12:06;;;;;;;41.35;21.70;;;6.20;61.60;;;;;;5020871;28;20064;-57
2022/01/16 07:14:33;;;;;;;50.38;23.77;;;6.20;61.60;;;;;;4997524;28;20037;-59
2022/01/16 07:16:59;;;;;;;46.60;23.90;;;6.20;61.40;;;;;;5015945;28;20561;-57
2022/01/16 07:19:25;;;;;;;42.78;22.13;;;6.20;61.40;;;;;;5014017;28;20355;-58
2022/01/16 07:21:53;;;;;;;49.22;24.63;;;6.20;61.30;;;;;;5020401;28;20026;-56
2022/01/16 07:24:19;;;;;;;43.75;22.85;;;6.20;61.30;;;;;;5020202;28;20032;-58
2022/01/16 07:26:45;;;;;;;50.55;24.38;;;6.20;61.20;;;;;;5019643;28;20029;-56
2022/01/16 07:29:12;;;;;;;50.35;23.75;;;6.20;61.30;;;;;;5001273;28;20188;-59
2022/01/16 07:31:41;;;;;;;49.22;24.02;;;6.20;61.20;;;;;;5018440;28;20032;-58
2022/01/16 07:34:08;;;;;;;46.65;23.58;;;6.20;61.30;;;;;;5020564;28;20033;-56
2022/01/16 07:36:34;;;;;;;48.83;24.17;;;6.20;61.30;;;;;;5020879;28;20025;-58
2022/01/16 07:39:01;;;;;;;51.03;24.77;;;6.20;61.30;;;;;;5021038;28;20478;-57
2022/01/16 07:41:27;;;;;;;46.67;24.90;;;6.20;61.30;;;;;;5021279;28;20033;-57
2022/01/16 07:43:53;;;;;;;54.20;25.40;;;6.20;61.30;;;;;;5018714;28;20485;-57
2022/01/16 07:46:19;;;;;;;54.25;25.95;;;6.20;61.30;;;;;;5015848;28;20030;-58
2022/01/16 07:48:46;;;;;;;53.50;25.10;;;6.20;61.20;;;;;;5018474;28;20064;-58
2022/01/16 07:51:12;;;;;;;51.35;24.58;;;6.20;61.10;;;;;;5014029;28;20049;-57
2022/01/16 07:53:38;;;;;;;51.10;24.05;;;6.20;61.10;;;;;;5015924;28;20033;-57
2022/01/16 07:56:04;;;;;;;51.42;26.15;;;6.20;61.10;;;;;;5012583;28;20577;-56
2022/01/16 07:58:31;;;;;;;58.03;25.73;;;6.20;61.10;;;;;;5016622;28;20507;-55
2022/01/16 08:00:57;;;;;;;51.72;24.92;;;6.20;61.10;;;;;;5013088;28;20033;-56
2022/01/16 08:03:24;;;;;;;55.65;24.70;;;6.20;61.00;;;;;;5016739;28;20037;-57
2022/01/16 08:05:50;;;;;;;51.08;24.27;;;6.20;61.00;;;;;;5019846;28;20040;-56
2022/01/16 08:08:16;;;;;;;51.80;25.17;;;6.20;61.00;;;;;;4988798;28;20032;-57
2022/01/16 08:10:42;;;;;;;54.78;25.67;;;6.20;60.90;;;;;;5016762;28;20376;-56
2022/01/16 08:13:08;;;;;;;49.95;24.55;;;6.20;60.90;;;;;;5017054;28;20039;-56
2022/01/16 08:15:35;;;;;;;49.55;24.73;;;6.20;60.90;;;;;;5017478;28;20405;-57
2022/01/16 08:18:01;;;;;;;55.53;25.48;;;6.20;60.90;;;;;;5014309;28;20485;-58
2022/01/16 08:20:27;;;;;;;52.22;26.08;;;6.20;61.00;;;;;;5000930;28;20049;-58
2022/01/16 08:22:54;;;;;;;55.92;27.33;;;6.30;61.10;;;;;;5016923;28;21591;-57
2022/01/16 08:25:23;;;;;;;53.80;26.13;;;6.30;61.10;;;;;;5019237;28;20036;-56
2022/01/16 08:27:50;;;;;;;55.92;26.10;;;6.30;61.10;;;;;;5014333;28;20042;-58
2022/01/16 08:30:16;;;;;;;49.90;24.30;;;6.30;61.00;;;;;;5016352;28;20052;-58
2022/01/16 08:32:43;;;;;;;60.40;28.60;;;6.30;61.10;;;;;;5012865;28;20481;-57
2022/01/16 08:35:10;;;;;;;61.88;28.02;;;6.30;61.20;;;;;;5016441;28;20498;-57
2022/01/16 08:37:37;;;;;;;63.90;28.60;;;6.30;61.20;;;;;;5015136;28;20033;-58
2022/01/16 08:40:04;;;;;;;57.80;27.75;;;6.30;61.20;;;;;;5020476;28;20029;-55
2022/01/16 08:42:30;;;;;;;60.97;27.48;;;6.30;61.20;;;;;;5019545;28;20030;-57
2022/01/16 08:44:57;;;;;;;58.95;27.15;;;6.40;61.30;;;;;;5000565;28;20041;-59
2022/01/16 08:47:23;;;;;;;59.15;25.92;;;6.40;61.40;;;;;;5013873;28;20029;-57
2022/01/16 08:49:49;;;;;;;54.22;26.15;;;6.40;61.40;;;;;;5016490;28;20029;-57
2022/01/16 08:52:18;;;;;;;52.80;26.85;;;6.40;61.40;;;;;;5014816;28;20036;-57
2022/01/16 08:54:45;;;;;;;52.97;25.75;;;6.50;61.50;;;;;;5016071;28;20044;-59
2022/01/16 08:57:11;;;;;;;52.75;27.35;;;6.50;61.40;;;;;;5006807;28;20514;-57
2022/01/16 08:59:37;;;;;;;56.83;27.50;;;6.50;61.40;;;;;;5016863;28;20021;-55
2022/01/16 09:02:03;;;;;;;55.25;27.70;;;6.50;61.40;;;;;;5010113;28;20021;-57
2022/01/16 09:04:29;;;;;;;51.10;26.35;;;6.50;61.40;;;;;;5014089;28;20028;-57
2022/01/16 09:06:56;;;;;;;51.03;26.70;;;6.50;61.60;;;;;;5014637;28;20046;-58
2022/01/16 09:09:22;;;;;;;55.08;25.85;;;6.50;61.70;;;;;;4998642;28;20033;-58
2022/01/16 09:11:48;;;;;;;54.05;26.75;;;6.60;61.90;;;;;;5019964;28;20477;-58
2022/01/16 09:14:15;;;;;;;50.40;26.83;;;6.60;62.10;;;;;;5017460;28;20060;-59
2022/01/16 09:16:42;;;;;;;64.35;27.05;;;6.60;62.20;;;;;;5018148;28;20576;-57
2022/01/16 09:19:08;;;;;;;54.92;26.70;;;6.70;62.40;;;;;;5016441;28;20038;-57
2022/01/16 09:21:35;;;;;;;48.92;25.60;;;6.70;62.40;;;;;;5019574;28;20517;-58
2022/01/16 09:24:01;;;;;;;53.28;27.08;;;6.70;62.40;;;;;;5018716;28;20436;-58
2022/01/16 09:26:27;;;;;;;50.30;25.95;;;6.80;62.50;;;;;;4997645;28;20464;-59
2022/01/16 09:28:54;;;;;;;55.72;27.92;;;6.80;62.50;;;;;;5017865;28;20062;-55
2022/01/16 09:31:20;;;;;;;47.85;25.15;;;6.90;62.50;;;;;;5023095;28;20041;-59
2022/01/16 09:33:47;;;;;;;57.03;27.23;;;6.90;62.50;;;;;;5020119;28;20050;-57
2022/01/16 09:36:13;;;;;;;50.17;26.58;;;6.90;62.40;;;;;;5023331;28;20425;-54
2022/01/16 09:38:40;;;;;;;56.25;27.95;;;6.90;62.30;;;;;;5021375;28;20021;-57
2022/01/16 09:41:06;;;;;;;47.17;26.25;;;7.00;62.50;;;;;;5023410;28;20509;-56
2022/01/16 09:43:35;;;;;;;50.25;25.65;;;7.00;62.50;;;;;;5021998;28;20526;-58
2022/01/16 09:46:02;;;;;;;59.22;28.02;;;7.10;62.50;;;;;;5022779;28;20045;-59
2022/01/16 09:48:28;;;;;;;57.30;28.42;;;7.10;62.40;;;;;;5021781;28;20029;-59
2022/01/16 09:50:54;;;;;;;50.05;25.95;;;7.20;62.40;;;;;;5022649;28;20394;-59
2022/01/16 09:53:24;;;;;;;49.00;27.33;;;7.20;62.30;;;;;;5021784;28;20040;-55
2022/01/16 09:55:50;;;;;;;49.13;25.63;;;7.20;62.20;;;;;;5023020;28;20589;-59
2022/01/16 09:58:17;;;;;;;53.25;26.27;;;7.30;62.20;;;;;;5021593;28;20032;-57
2022/01/16 10:00:43;;;;;;;53.65;26.58;;;7.30;62.20;;;;;;5023113;28;20025;-58
2022/01/16 10:03:10;;;;;;;57.67;28.83;;;7.30;62.80;;;;;;5002373;28;20042;-59
2022/01/16 10:05:38;;;;;;;57.58;28.60;;;7.40;61.90;;;;;;5022911;28;20072;-59
2022/01/16 10:08:08;;;;;;;56.08;29.80;;;7.40;61.90;;;;;;5017637;28;20236;-59
2022/01/16 10:10:44;;;;;;;58.72;29.33;;;7.40;61.70;;;;;;5022753;28;20040;-59
2022/01/16 10:13:41;;;;;;;52.47;28.05;;;7.50;61.70;;;;;;5021411;28;20731;-59
2022/01/16 10:16:07;;;;;;;48.60;26.63;;;7.50;61.60;;;;;;5021350;28;20038;-59
2022/01/16 10:18:40;;;;;;;54.95;28.83;;;7.60;61.50;;;;;;5019437;28;20033;-59
2022/01/16 10:21:08;;;;;;;52.33;26.00;;;7.60;61.30;;;;;;5022964;28;20041;-59
2022/01/16 10:23:43;;;;;;;47.42;25.33;;;7.60;61.20;;;;;;5022695;28;20037;-56
2022/01/16 10:26:20;;;;;;;47.53;24.23;;;7.70;61.10;;;;;;5022677;28;20037;-57
2022/01/16 10:28:47;;;;;;;50.28;24.42;;;7.70;60.90;;;;;;4998380;28;20037;-59
2022/01/16 10:31:22;;;;;;;43.30;23.15;;;7.80;61.00;;;;;;5021106;28;20599;-57
2022/01/16 10:33:49;;;;;;;45.00;23.13;;;7.80;60.80;;;;;;5016685;28;20033;-59
2022/01/16 10:36:37;;;;;;;44.10;23.33;;;7.80;60.70;;;;;;5022436;28;20029;-59
2022/01/16 10:39:12;;;;;;;43.63;22.38;;;7.90;60.60;;;;;;5020315;28;20477;-58
2022/01/16 10:41:39;;;;;;;45.38;22.30;;;7.90;60.30;;;;;;5022249;28;20025;-58
2022/01/16 10:44:28;;;;;;;38.58;20.77;;;8.00;60.20;;;;;;5021575;28;20034;-58
2022/01/16 10:46:55;;;;;;;37.67;20.25;;;8.00;59.80;;;;;;5020049;28;20037;-59
2022/01/16 10:49:22;;;;;;;44.88;20.92;;;8.00;60.00;;;;;;5020637;28;20029;-59
2022/01/16 10:52:05;;;;;;;36.88;20.20;;;8.10;59.90;;;;;;5020996;28;20053;-59
2022/01/16 10:54:37;;;;;;;37.28;18.92;;;8.10;59.70;;;;;;5019596;28;20041;-57
2022/01/16 10:57:25;;;;;;;35.05;18.42;;;8.20;59.70;;;;;;5021555;28;20036;-60
2022/01/16 11:00:23;;;;;;;36.25;19.13;;;8.20;59.60;;;;;;5018646;28;20512;-57
2022/01/16 11:02:51;;;;;;;37.90;19.17;;;8.30;59.50;;;;;;4984506;28;20034;-59
2022/01/16 11:05:20;;;;;;;31.98;17.65;;;8.30;59.30;;;;;;5022301;28;20034;-59
2022/01/16 11:07:56;;;;;;;34.95;17.75;;;8.40;59.10;;;;;;5017763;28;20040;-59
2022/01/16 11:10:26;;;;;;;36.38;18.00;;;8.40;58.70;;;;;;5022333;28;20240;-58
2022/01/16 11:12:54;;;;;;;40.80;18.80;;;8.50;58.80;;;;;;5020051;28;20540;-59
2022/01/16 11:15:21;;;;;;;34.15;17.88;;;8.50;58.80;;;;;;4999351;28;20045;-58
2022/01/16 11:17:47;;;;;;;37.38;17.17;;;8.50;58.70;;;;;;5017019;28;20045;-59
2022/01/16 11:20:15;;;;;;;36.10;18.88;;;8.60;58.60;;;;;;5017533;28;20309;-59
2022/01/16 11:25:36;;;;;;;35.92;18.67;;;8.60;58.40;;;;;;4983354;28;20037;-58
2022/01/16 11:28:08;;;;;;;38.67;18.67;;;8.70;58.20;;;;;;5018400;28;20041;-56
2022/01/16 11:30:38;;;;;;;33.50;17.50;;;8.70;58.00;;;;;;5020028;28;20347;-57
2022/01/16 11:33:05;;;;;;;35.83;18.05;;;8.70;58.00;;;;;;5008446;28;21399;-59
2022/01/16 11:35:39;;;;;;;34.22;17.75;;;8.70;58.20;;;;;;5017409;28;20470;-57
2022/01/16 11:38:05;;;;;;;;;;;8.70;58.20;;;;;;5015333;28;20038;-58
2022/01/16 11:40:44;;;;;;;34.22;16.83;;;8.80;58.50;;;;;;4998406;28;19917;-57
2022/01/16 11:43:11;;;;;;;36.85;17.73;;;8.80;58.20;;;;;;5017163;28;20053;-59
2022/01/16 11:45:51;;;;;;;34.00;16.73;;;8.80;58.00;;;;;;5020041;28;20029;-59
2022/01/16 11:48:35;;;;;;;37.08;17.08;;;8.80;57.90;;;;;;5015228;28;20021;-56
2022/01/16 11:51:06;;;;;;;34.33;16.73;;;8.90;57.80;;;;;;5019751;28;20052;-58
2022/01/16 11:53:56;;;;;;;30.05;15.55;;;8.90;57.80;;;;;;5017867;28;20018;-59
2022/01/16 11:56:38;;;;;;;27.20;14.65;;;8.90;57.80;;;;;;5019232;28;20520;-59
2022/01/16 11:59:22;;;;;;;28.80;15.23;;;8.90;57.80;;;;;;5015182;28;20033;-57
2022/01/16 12:01:50;;;;;;;29.65;15.48;;;8.90;57.70;;;;;;5019418;28;20033;-58
2022/01/16 12:04:28;;;;;;;32.33;16.15;;;9.00;57.90;;;;;;4996332;28;20036;-57
2022/01/16 12:07:17;;;;;;;34.92;16.90;;;9.00;57.50;;;;;;5018251;28;20044;-57
2022/01/16 12:09:49;;;;;;;33.78;16.95;;;9.00;57.50;;;;;;5019655;28;20032;-57
2022/01/16 12:12:15;;;;;;;32.60;15.75;;;9.00;57.60;;;;;;5018005;28;20478;-56
2022/01/16 12:15:02;;;;;;;31.67;16.90;;;9.00;57.30;;;;;;5019687;28;20053;-55
2022/01/16 12:17:40;;;;;;;33.22;16.38;;;9.00;57.30;;;;;;5017784;28;20026;-56
2022/01/16 12:20:16;;;;;;;29.50;15.93;;;9.00;57.50;;;;;;5018427;28;20486;-59
2022/01/16 12:22:56;;;;;;;32.30;16.35;;;9.00;57.50;;;;;;5018742;28;20037;-59
2022/01/16 12:25:53;;;;;;;29.80;16.23;;;9.00;57.40;;;;;;4999116;28;20037;-58
2022/01/16 12:28:23;;;;;;;31.80;16.10;;;9.00;57.40;;;;;;5018992;28;20037;-55
2022/01/16 12:30:59;;;;;;;31.20;15.90;;;9.10;57.60;;;;;;4997894;28;20030;-57
2022/01/16 12:33:30;;;;;;;33.75;16.17;;;9.00;57.10;;;;;;5019496;28;20026;-56
2022/01/16 12:36:08;;;;;;;28.83;15.55;;;9.10;57.20;;;;;;5018668;28;20034;-56
2022/01/16 12:38:39;;;;;;;31.20;16.17;;;9.10;57.30;;;;;;5018554;28;20489;-59
2022/01/16 12:41:19;;;;;;;32.42;15.90;;;9.10;57.40;;;;;;5011593;28;20044;-58
2022/01/16 12:43:58;;;;;;;33.30;15.98;;;9.10;57.30;;;;;;5014989;28;20041;-59
2022/01/16 12:46:32;;;;;;;28.63;15.90;;;9.10;57.20;;;;;;5018465;28;20038;-57
2022/01/16 12:49:02;;;;;;;30.27;16.38;;;9.10;57.30;;;;;;5017297;28;20509;-56
2022/01/16 12:51:32;;;;;;;30.25;16.55;;;9.10;57.30;;;;;;5001947;28;20049;-56
2022/01/16 12:54:14;;;;;;;32.92;15.95;;;9.20;57.40;;;;;;4999343;28;20577;-56
2022/01/16 12:56:46;;;;;;;29.60;15.73;;;9.20;57.40;;;;;;5018793;28;20041;-57
2022/01/16 12:59:24;;;;;;;34.40;16.73;;;9.20;57.40;;;;;;5017347;28;20049;-59
2022/01/16 13:01:51;;;;;;;40.03;17.42;;;9.20;57.20;;;;;;5018394;28;20038;-56
2022/01/16 13:04:29;;;;;;;34.60;16.95;;;9.20;57.40;;;;;;5016725;28;20508;-58
2022/01/16 13:07:00;;;;;;;34.45;16.52;;;9.20;57.20;;;;;;5018289;28;20760;-56
2022/01/16 13:09:28;;;;;;;30.63;16.48;;;9.30;57.30;;;;;;5018067;28;20041;-56
2022/01/16 13:11:58;;;;;;;34.55;17.63;;;9.30;57.20;;;;;;5015400;28;20049;-58
2022/01/16 13:14:36;;;;;;;34.58;17.30;;;9.30;57.20;;;;;;5018983;28;20478;-56
2022/01/16 13:17:08;;;;;;;33.15;18.50;;;9.30;57.20;;;;;;5015899;28;20600;-59
2022/01/16 13:19:42;;;;;;;38.38;18.77;;;9.30;57.10;;;;;;5009612;28;20033;-59
2022/01/16 13:22:13;;;;;;;36.40;16.83;;;9.30;57.20;;;;;;5015725;28;20045;-59
2022/01/16 13:24:51;;;;;;;31.42;18.20;;;9.40;57.30;;;;;;5017271;28;20505;-57
2022/01/16 13:27:22;;;;;;;36.10;18.38;;;9.40;57.20;;;;;;5015590;28;20041;-59
2022/01/16 13:29:54;;;;;;;36.75;17.55;;;9.40;57.00;;;;;;5015988;28;20025;-57